sensor_id;sensor_type;location;lat;lon;timestamp;P1;durP1;ratioP1;P2;durP2;ratioP2
21152;SDS011;10734;44.792;20.482;2022-11-06T00:01:18;117.00;;;42.55;;
21152;SDS011;10734;44.792;20.482;2022-11-06T00:03:45;120.40;;;43.70;;
21152;SDS011;10734;44.792;20.482;2022-11-06T00:06:13;126.43;;;43.92;;
21152;SDS011;10734;44.792;20.482;2022-11-06T00:09:00;113.82;;;41.95;;
21152;SDS011;10734;44.792;20.482;2022-11-06T00:11:29;119.07;;;42.63;;
21152;SDS011;10734;44.792;20.482;2022-11-06T00:13:55;88.55;;;40.70;;
21152;SDS011;10734;44.792;20.482;2022-11-06T00:16:23;100.03;;;41.40;;
21152;SDS011;10734;44.792;20.482;2022-11-06T00:18:49;95.07;;;39.60;;
21152;SDS011;10734;44.792;20.482;2022-11-06T00:21:18;104.95;;;41.28;;
21152;SDS011;10734;44.792;20.482;2022-11-06T00:23:47;95.60;;;41.10;;
21152;SDS011;10734;44.792;20.482;2022-11-06T00:26:16;87.32;;;38.60;;
21152;SDS011;10734;44.792;20.482;2022-11-06T00:28:45;100.25;;;40.42;;
21152;SDS011;10734;44.792;20.482;2022-11-06T00:31:13;92.72;;;40.55;;
21152;SDS011;10734;44.792;20.482;2022-11-06T00:33:42;120.97;;;42.45;;
21152;SDS011;10734;44.792;20.482;2022-11-06T00:36:10;122.75;;;42.97;;
21152;SDS011;10734;44.792;20.482;2022-11-06T00:38:39;104.35;;;42.80;;
21152;SDS011;10734;44.792;20.482;2022-11-06T00:41:15;90.85;;;39.63;;
21152;SDS011;10734;44.792;20.482;2022-11-06T00:43:46;106.28;;;42.40;;
21152;SDS011;10734;44.792;20.482;2022-11-06T00:46:18;110.60;;;41.15;;
21152;SDS011;10734;44.792;20.482;2022-11-06T00:48:45;136.38;;;42.95;;
21152;SDS011;10734;44.792;20.482;2022-11-06T00:51:16;88.22;;;39.35;;
21152;SDS011;10734;44.792;20.482;2022-11-06T00:53:47;118.78;;;42.03;;
21152;SDS011;10734;44.792;20.482;2022-11-06T00:56:18;121.88;;;41.13;;
21152;SDS011;10734;44.792;20.482;2022-11-06T00:58:46;87.18;;;38.40;;
21152;SDS011;10734;44.792;20.482;2022-11-06T01:01:17;158.43;;;42.78;;
21152;SDS011;10734;44.792;20.482;2022-11-06T01:03:56;77.07;;;37.97;;
21152;SDS011;10734;44.792;20.482;2022-11-06T01:06:27;94.60;;;38.97;;
21152;SDS011;10734;44.792;20.482;2022-11-06T01:08:55;83.97;;;36.88;;
21152;SDS011;10734;44.792;20.482;2022-11-06T01:11:26;102.07;;;38.88;;
21152;SDS011;10734;44.792;20.482;2022-11-06T01:14:15;196.30;;;40.50;;
21152;SDS011;10734;44.792;20.482;2022-11-06T01:16:44;96.05;;;35.75;;
21152;SDS011;10734;44.792;20.482;2022-11-06T01:19:11;92.07;;;38.72;;
21152;SDS011;10734;44.792;20.482;2022-11-06T01:21:40;95.95;;;38.55;;
21152;SDS011;10734;44.792;20.482;2022-11-06T01:24:12;104.85;;;38.70;;
21152;SDS011;10734;44.792;20.482;2022-11-06T01:26:44;92.13;;;39.97;;
21152;SDS011;10734;44.792;20.482;2022-11-06T01:29:31;241.60;;;43.42;;
21152;SDS011;10734;44.792;20.482;2022-11-06T01:31:57;98.18;;;40.50;;
21152;SDS011;10734;44.792;20.482;2022-11-06T01:34:24;104.55;;;42.03;;
21152;SDS011;10734;44.792;20.482;2022-11-06T01:36:51;101.43;;;43.40;;
21152;SDS011;10734;44.792;20.482;2022-11-06T01:39:18;102.68;;;41.13;;
21152;SDS011;10734;44.792;20.482;2022-11-06T01:41:48;120.30;;;46.28;;
21152;SDS011;10734;44.792;20.482;2022-11-06T01:46:59;95.22;;;43.50;;
21152;SDS011;10734;44.792;20.482;2022-11-06T01:49:28;98.32;;;45.20;;
21152;SDS011;10734;44.792;20.482;2022-11-06T01:52:00;99.55;;;44.40;;
21152;SDS011;10734;44.792;20.482;2022-11-06T01:54:34;122.72;;;47.38;;
21152;SDS011;10734;44.792;20.482;2022-11-06T01:57:03;86.05;;;43.40;;
21152;SDS011;10734;44.792;20.482;2022-11-06T01:59:31;99.85;;;45.05;;
21152;SDS011;10734;44.792;20.482;2022-11-06T02:02:01;85.68;;;42.40;;
21152;SDS011;10734;44.792;20.482;2022-11-06T02:04:30;87.15;;;40.83;;
21152;SDS011;10734;44.792;20.482;2022-11-06T02:07:01;82.95;;;41.30;;
21152;SDS011;10734;44.792;20.482;2022-11-06T02:09:29;92.13;;;40.95;;
21152;SDS011;10734;44.792;20.482;2022-11-06T02:15:06;78.82;;;42.72;;
21152;SDS011;10734;44.792;20.482;2022-11-06T02:29:00;96.80;;;42.13;;
21152;SDS011;10734;44.792;20.482;2022-11-06T02:31:31;77.28;;;41.55;;
21152;SDS011;10734;44.792;20.482;2022-11-06T02:34:03;79.78;;;40.28;;
21152;SDS011;10734;44.792;20.482;2022-11-06T02:36:36;70.47;;;40.20;;
21152;SDS011;10734;44.792;20.482;2022-11-06T02:39:09;74.65;;;40.13;;
21152;SDS011;10734;44.792;20.482;2022-11-06T02:41:41;72.05;;;40.13;;
21152;SDS011;10734;44.792;20.482;2022-11-06T02:44:13;83.93;;;41.42;;
21152;SDS011;10734;44.792;20.482;2022-11-06T02:47:05;67.47;;;37.85;;
21152;SDS011;10734;44.792;20.482;2022-11-06T02:52:20;87.22;;;44.30;;
21152;SDS011;10734;44.792;20.482;2022-11-06T02:54:54;77.32;;;39.90;;
21152;SDS011;10734;44.792;20.482;2022-11-06T02:57:25;76.90;;;39.15;;
21152;SDS011;10734;44.792;20.482;2022-11-06T03:00:02;75.90;;;40.22;;
21152;SDS011;10734;44.792;20.482;2022-11-06T03:02:36;89.97;;;43.25;;
21152;SDS011;10734;44.792;20.482;2022-11-06T03:05:10;78.13;;;40.55;;
21152;SDS011;10734;44.792;20.482;2022-11-06T03:10:41;75.43;;;41.03;;
21152;SDS011;10734;44.792;20.482;2022-11-06T03:13:20;75.15;;;40.40;;
21152;SDS011;10734;44.792;20.482;2022-11-06T03:16:02;79.32;;;39.03;;
21152;SDS011;10734;44.792;20.482;2022-11-06T03:18:41;75.70;;;38.92;;
21152;SDS011;10734;44.792;20.482;2022-11-06T03:21:40;81.65;;;40.40;;
21152;SDS011;10734;44.792;20.482;2022-11-06T03:24:15;81.70;;;40.13;;
21152;SDS011;10734;44.792;20.482;2022-11-06T03:26:50;80.38;;;41.08;;
21152;SDS011;10734;44.792;20.482;2022-11-06T03:29:25;72.57;;;39.15;;
21152;SDS011;10734;44.792;20.482;2022-11-06T03:40:20;81.15;;;40.17;;
21152;SDS011;10734;44.792;20.482;2022-11-06T03:42:51;89.13;;;42.90;;
21152;SDS011;10734;44.792;20.482;2022-11-06T03:45:22;81.03;;;41.05;;
21152;SDS011;10734;44.792;20.482;2022-11-06T03:50:23;74.95;;;38.92;;
21152;SDS011;10734;44.792;20.482;2022-11-06T03:52:56;83.65;;;40.45;;
21152;SDS011;10734;44.792;20.482;2022-11-06T03:55:32;79.00;;;39.75;;
21152;SDS011;10734;44.792;20.482;2022-11-06T03:58:04;76.30;;;39.15;;
21152;SDS011;10734;44.792;20.482;2022-11-06T04:00:34;75.13;;;37.95;;
21152;SDS011;10734;44.792;20.482;2022-11-06T04:03:05;74.68;;;38.55;;
21152;SDS011;10734;44.792;20.482;2022-11-06T04:05:46;92.30;;;41.28;;
21152;SDS011;10734;44.792;20.482;2022-11-06T04:08:17;70.65;;;35.95;;
21152;SDS011;10734;44.792;20.482;2022-11-06T04:11:07;87.75;;;41.17;;
21152;SDS011;10734;44.792;20.482;2022-11-06T04:13:57;73.88;;;38.03;;
21152;SDS011;10734;44.792;20.482;2022-11-06T04:16:32;75.40;;;38.97;;
21152;SDS011;10734;44.792;20.482;2022-11-06T04:19:01;80.05;;;39.30;;
21152;SDS011;10734;44.792;20.482;2022-11-06T04:24:13;73.07;;;37.83;;
21152;SDS011;10734;44.792;20.482;2022-11-06T04:30:15;74.72;;;38.47;;
21152;SDS011;10734;44.792;20.482;2022-11-06T04:32:58;78.60;;;39.30;;
21152;SDS011;10734;44.792;20.482;2022-11-06T04:41:15;75.32;;;37.55;;
21152;SDS011;10734;44.792;20.482;2022-11-06T04:44:03;71.15;;;37.70;;
21152;SDS011;10734;44.792;20.482;2022-11-06T04:46:39;80.82;;;40.78;;
21152;SDS011;10734;44.792;20.482;2022-11-06T04:49:14;88.57;;;40.92;;
21152;SDS011;10734;44.792;20.482;2022-11-06T04:51:42;76.88;;;37.63;;
21152;SDS011;10734;44.792;20.482;2022-11-06T04:54:11;79.32;;;38.13;;
21152;SDS011;10734;44.792;20.482;2022-11-06T04:56:39;73.15;;;37.47;;
21152;SDS011;10734;44.792;20.482;2022-11-06T05:01:39;92.28;;;37.85;;
21152;SDS011;10734;44.792;20.482;2022-11-06T05:04:05;73.30;;;36.00;;
21152;SDS011;10734;44.792;20.482;2022-11-06T05:06:32;75.93;;;35.92;;
21152;SDS011;10734;44.792;20.482;2022-11-06T05:08:59;68.28;;;34.85;;
21152;SDS011;10734;44.792;20.482;2022-11-06T05:11:26;87.22;;;38.55;;
21152;SDS011;10734;44.792;20.482;2022-11-06T05:13:53;73.00;;;36.03;;
21152;SDS011;10734;44.792;20.482;2022-11-06T05:16:19;73.82;;;35.95;;
21152;SDS011;10734;44.792;20.482;2022-11-06T05:18:46;88.72;;;41.53;;
21152;SDS011;10734;44.792;20.482;2022-11-06T05:21:13;83.18;;;39.83;;
21152;SDS011;10734;44.792;20.482;2022-11-06T05:23:58;99.38;;;40.40;;
21152;SDS011;10734;44.792;20.482;2022-11-06T05:26:25;88.78;;;39.35;;
21152;SDS011;10734;44.792;20.482;2022-11-06T05:28:51;88.65;;;40.70;;
21152;SDS011;10734;44.792;20.482;2022-11-06T05:31:18;87.88;;;40.10;;
21152;SDS011;10734;44.792;20.482;2022-11-06T05:33:45;87.90;;;40.05;;
21152;SDS011;10734;44.792;20.482;2022-11-06T05:36:11;102.10;;;40.60;;
21152;SDS011;10734;44.792;20.482;2022-11-06T05:38:38;89.72;;;40.28;;
21152;SDS011;10734;44.792;20.482;2022-11-06T05:41:05;81.55;;;37.40;;
21152;SDS011;10734;44.792;20.482;2022-11-06T05:43:31;84.45;;;37.10;;
21152;SDS011;10734;44.792;20.482;2022-11-06T05:45:58;82.38;;;37.22;;
21152;SDS011;10734;44.792;20.482;2022-11-06T05:48:26;87.45;;;40.08;;
21152;SDS011;10734;44.792;20.482;2022-11-06T05:51:03;101.40;;;40.60;;
21152;SDS011;10734;44.792;20.482;2022-11-06T05:53:32;95.40;;;40.55;;
21152;SDS011;10734;44.792;20.482;2022-11-06T05:56:02;100.05;;;42.80;;
21152;SDS011;10734;44.792;20.482;2022-11-06T05:58:30;103.43;;;40.63;;
21152;SDS011;10734;44.792;20.482;2022-11-06T06:00:57;114.93;;;42.50;;
21152;SDS011;10734;44.792;20.482;2022-11-06T06:03:24;113.53;;;42.50;;
21152;SDS011;10734;44.792;20.482;2022-11-06T06:05:51;93.78;;;39.00;;
21152;SDS011;10734;44.792;20.482;2022-11-06T06:08:17;99.78;;;40.63;;
21152;SDS011;10734;44.792;20.482;2022-11-06T06:10:45;89.93;;;39.97;;
21152;SDS011;10734;44.792;20.482;2022-11-06T06:13:13;97.65;;;40.38;;
21152;SDS011;10734;44.792;20.482;2022-11-06T06:15:40;93.10;;;42.53;;
21152;SDS011;10734;44.792;20.482;2022-11-06T06:18:08;115.15;;;44.83;;
21152;SDS011;10734;44.792;20.482;2022-11-06T06:20:35;106.40;;;47.50;;
21152;SDS011;10734;44.792;20.482;2022-11-06T06:23:02;113.32;;;44.83;;
21152;SDS011;10734;44.792;20.482;2022-11-06T06:25:34;105.70;;;44.70;;
21152;SDS011;10734;44.792;20.482;2022-11-06T06:28:01;108.07;;;44.97;;
21152;SDS011;10734;44.792;20.482;2022-11-06T06:30:27;109.65;;;43.47;;
21152;SDS011;10734;44.792;20.482;2022-11-06T06:32:54;114.75;;;44.22;;
21152;SDS011;10734;44.792;20.482;2022-11-06T06:35:21;112.40;;;44.47;;
21152;SDS011;10734;44.792;20.482;2022-11-06T06:37:51;119.03;;;45.38;;
21152;SDS011;10734;44.792;20.482;2022-11-06T06:40:19;100.82;;;41.83;;
21152;SDS011;10734;44.792;20.482;2022-11-06T06:42:46;112.45;;;44.72;;
21152;SDS011;10734;44.792;20.482;2022-11-06T06:45:13;122.32;;;46.10;;
21152;SDS011;10734;44.792;20.482;2022-11-06T06:47:40;116.65;;;45.03;;
21152;SDS011;10734;44.792;20.482;2022-11-06T06:50:07;120.22;;;46.08;;
21152;SDS011;10734;44.792;20.482;2022-11-06T06:52:34;98.95;;;42.22;;
21152;SDS011;10734;44.792;20.482;2022-11-06T06:55:01;114.13;;;44.95;;
21152;SDS011;10734;44.792;20.482;2022-11-06T06:57:27;107.35;;;45.70;;
21152;SDS011;10734;44.792;20.482;2022-11-06T06:59:54;115.28;;;46.13;;
21152;SDS011;10734;44.792;20.482;2022-11-06T07:02:21;117.40;;;47.33;;
21152;SDS011;10734;44.792;20.482;2022-11-06T07:04:47;103.97;;;45.30;;
21152;SDS011;10734;44.792;20.482;2022-11-06T07:07:14;115.95;;;44.78;;
21152;SDS011;10734;44.792;20.482;2022-11-06T07:09:41;99.15;;;42.65;;
21152;SDS011;10734;44.792;20.482;2022-11-06T07:12:07;97.20;;;40.28;;
21152;SDS011;10734;44.792;20.482;2022-11-06T07:14:34;109.68;;;43.47;;
21152;SDS011;10734;44.792;20.482;2022-11-06T07:17:01;118.38;;;45.08;;
21152;SDS011;10734;44.792;20.482;2022-11-06T07:19:27;117.25;;;44.53;;
21152;SDS011;10734;44.792;20.482;2022-11-06T07:21:54;115.50;;;45.33;;
21152;SDS011;10734;44.792;20.482;2022-11-06T07:24:20;119.53;;;46.38;;
21152;SDS011;10734;44.792;20.482;2022-11-06T07:26:47;131.80;;;48.08;;
21152;SDS011;10734;44.792;20.482;2022-11-06T07:29:14;117.38;;;47.88;;
21152;SDS011;10734;44.792;20.482;2022-11-06T07:31:40;121.38;;;45.80;;
21152;SDS011;10734;44.792;20.482;2022-11-06T07:34:08;129.52;;;46.30;;
21152;SDS011;10734;44.792;20.482;2022-11-06T07:36:35;138.95;;;47.35;;
21152;SDS011;10734;44.792;20.482;2022-11-06T07:39:01;126.45;;;44.35;;
21152;SDS011;10734;44.792;20.482;2022-11-06T07:41:28;123.30;;;48.10;;
21152;SDS011;10734;44.792;20.482;2022-11-06T07:43:55;126.32;;;46.15;;
21152;SDS011;10734;44.792;20.482;2022-11-06T07:46:21;124.18;;;48.17;;
21152;SDS011;10734;44.792;20.482;2022-11-06T07:48:48;124.72;;;48.03;;
21152;SDS011;10734;44.792;20.482;2022-11-06T07:51:15;133.82;;;51.13;;
21152;SDS011;10734;44.792;20.482;2022-11-06T07:53:41;152.45;;;52.15;;
21152;SDS011;10734;44.792;20.482;2022-11-06T07:56:08;138.23;;;52.40;;
21152;SDS011;10734;44.792;20.482;2022-11-06T07:58:35;165.45;;;55.28;;
21152;SDS011;10734;44.792;20.482;2022-11-06T08:01:02;147.93;;;54.63;;
21152;SDS011;10734;44.792;20.482;2022-11-06T08:03:29;158.50;;;55.45;;
21152;SDS011;10734;44.792;20.482;2022-11-06T08:05:58;126.30;;;52.35;;
21152;SDS011;10734;44.792;20.482;2022-11-06T08:08:27;150.02;;;57.45;;
21152;SDS011;10734;44.792;20.482;2022-11-06T08:10:54;152.88;;;55.42;;
21152;SDS011;10734;44.792;20.482;2022-11-06T08:13:21;141.10;;;53.75;;
21152;SDS011;10734;44.792;20.482;2022-11-06T08:15:47;131.27;;;51.22;;
21152;SDS011;10734;44.792;20.482;2022-11-06T08:18:14;129.93;;;49.92;;
21152;SDS011;10734;44.792;20.482;2022-11-06T08:20:42;107.47;;;46.63;;
21152;SDS011;10734;44.792;20.482;2022-11-06T08:23:09;119.57;;;49.55;;
21152;SDS011;10734;44.792;20.482;2022-11-06T08:25:38;114.90;;;48.60;;
21152;SDS011;10734;44.792;20.482;2022-11-06T08:28:05;111.20;;;48.10;;
21152;SDS011;10734;44.792;20.482;2022-11-06T08:30:31;117.50;;;46.90;;
21152;SDS011;10734;44.792;20.482;2022-11-06T08:32:59;100.75;;;43.58;;
21152;SDS011;10734;44.792;20.482;2022-11-06T08:35:27;104.05;;;43.35;;
21152;SDS011;10734;44.792;20.482;2022-11-06T08:37:54;115.65;;;45.08;;
21152;SDS011;10734;44.792;20.482;2022-11-06T08:40:21;115.53;;;45.13;;
21152;SDS011;10734;44.792;20.482;2022-11-06T08:43:03;110.30;;;47.50;;
21152;SDS011;10734;44.792;20.482;2022-11-06T08:45:35;109.57;;;45.03;;
21152;SDS011;10734;44.792;20.482;2022-11-06T08:48:06;127.63;;;44.45;;
21152;SDS011;10734;44.792;20.482;2022-11-06T08:50:34;107.65;;;42.58;;
21152;SDS011;10734;44.792;20.482;2022-11-06T08:53:03;130.90;;;45.85;;
21152;SDS011;10734;44.792;20.482;2022-11-06T08:55:32;118.22;;;44.03;;
21152;SDS011;10734;44.792;20.482;2022-11-06T08:57:59;113.53;;;44.03;;
21152;SDS011;10734;44.792;20.482;2022-11-06T09:00:27;113.25;;;41.22;;
21152;SDS011;10734;44.792;20.482;2022-11-06T09:02:58;115.25;;;44.53;;
21152;SDS011;10734;44.792;20.482;2022-11-06T09:05:25;117.30;;;42.20;;
21152;SDS011;10734;44.792;20.482;2022-11-06T09:07:53;121.35;;;43.38;;
21152;SDS011;10734;44.792;20.482;2022-11-06T09:10:19;116.90;;;43.65;;
21152;SDS011;10734;44.792;20.482;2022-11-06T09:12:46;114.88;;;44.25;;
21152;SDS011;10734;44.792;20.482;2022-11-06T09:15:13;106.30;;;42.60;;
21152;SDS011;10734;44.792;20.482;2022-11-06T09:17:43;106.10;;;42.95;;
21152;SDS011;10734;44.792;20.482;2022-11-06T09:20:11;107.47;;;42.60;;
21152;SDS011;10734;44.792;20.482;2022-11-06T09:22:38;104.80;;;40.08;;
21152;SDS011;10734;44.792;20.482;2022-11-06T09:25:06;115.13;;;41.42;;
21152;SDS011;10734;44.792;20.482;2022-11-06T09:27:40;121.10;;;44.75;;
21152;SDS011;10734;44.792;20.482;2022-11-06T09:30:12;113.00;;;42.50;;
21152;SDS011;10734;44.792;20.482;2022-11-06T09:32:46;110.65;;;42.30;;
21152;SDS011;10734;44.792;20.482;2022-11-06T09:35:14;107.88;;;40.30;;
21152;SDS011;10734;44.792;20.482;2022-11-06T09:37:41;100.72;;;40.83;;
21152;SDS011;10734;44.792;20.482;2022-11-06T09:40:14;120.45;;;42.97;;
21152;SDS011;10734;44.792;20.482;2022-11-06T09:45:24;101.53;;;41.17;;
21152;SDS011;10734;44.792;20.482;2022-11-06T09:47:59;99.35;;;39.60;;
21152;SDS011;10734;44.792;20.482;2022-11-06T09:50:37;120.55;;;42.75;;
21152;SDS011;10734;44.792;20.482;2022-11-06T09:53:12;105.80;;;38.40;;
21152;SDS011;10734;44.792;20.482;2022-11-06T09:55:45;129.77;;;42.85;;
21152;SDS011;10734;44.792;20.482;2022-11-06T09:58:16;123.53;;;41.60;;
21152;SDS011;10734;44.792;20.482;2022-11-06T10:00:47;133.05;;;43.00;;
21152;SDS011;10734;44.792;20.482;2022-11-06T10:03:18;142.80;;;46.38;;
21152;SDS011;10734;44.792;20.482;2022-11-06T10:05:54;128.73;;;44.78;;
21152;SDS011;10734;44.792;20.482;2022-11-06T10:08:22;127.05;;;45.95;;
21152;SDS011;10734;44.792;20.482;2022-11-06T10:21:46;145.23;;;45.80;;
21152;SDS011;10734;44.792;20.482;2022-11-06T10:24:20;120.93;;;44.63;;
21152;SDS011;10734;44.792;20.482;2022-11-06T10:26:51;140.38;;;45.45;;
21152;SDS011;10734;44.792;20.482;2022-11-06T10:34:59;123.50;;;44.60;;
21152;SDS011;10734;44.792;20.482;2022-11-06T10:37:38;135.15;;;46.40;;
21152;SDS011;10734;44.792;20.482;2022-11-06T10:40:24;140.13;;;48.60;;
21152;SDS011;10734;44.792;20.482;2022-11-06T10:45:51;152.38;;;49.90;;
21152;SDS011;10734;44.792;20.482;2022-11-06T10:48:28;152.82;;;51.65;;
21152;SDS011;10734;44.792;20.482;2022-11-06T10:51:27;167.90;;;54.05;;
21152;SDS011;10734;44.792;20.482;2022-11-06T10:54:12;148.35;;;51.78;;
21152;SDS011;10734;44.792;20.482;2022-11-06T10:56:56;175.60;;;54.60;;
21152;SDS011;10734;44.792;20.482;2022-11-06T10:59:28;166.02;;;54.83;;
21152;SDS011;10734;44.792;20.482;2022-11-06T11:01:55;164.32;;;53.65;;
21152;SDS011;10734;44.792;20.482;2022-11-06T11:04:22;169.30;;;54.47;;
21152;SDS011;10734;44.792;20.482;2022-11-06T11:06:49;162.32;;;51.80;;
21152;SDS011;10734;44.792;20.482;2022-11-06T11:09:29;165.63;;;52.03;;
21152;SDS011;10734;44.792;20.482;2022-11-06T11:11:57;163.43;;;52.67;;
21152;SDS011;10734;44.792;20.482;2022-11-06T11:14:26;173.63;;;53.20;;
21152;SDS011;10734;44.792;20.482;2022-11-06T11:16:58;164.20;;;54.17;;
21152;SDS011;10734;44.792;20.482;2022-11-06T11:22:01;179.30;;;54.28;;
21152;SDS011;10734;44.792;20.482;2022-11-06T11:27:31;183.13;;;55.40;;
21152;SDS011;10734;44.792;20.482;2022-11-06T11:30:03;204.90;;;55.40;;
21152;SDS011;10734;44.792;20.482;2022-11-06T11:32:31;178.27;;;57.90;;
21152;SDS011;10734;44.792;20.482;2022-11-06T11:34:58;172.63;;;56.45;;
21152;SDS011;10734;44.792;20.482;2022-11-06T11:40:18;183.20;;;55.67;;
21152;SDS011;10734;44.792;20.482;2022-11-06T11:42:54;182.15;;;57.08;;
21152;SDS011;10734;44.792;20.482;2022-11-06T11:48:44;174.75;;;55.15;;
21152;SDS011;10734;44.792;20.482;2022-11-06T11:54:06;160.20;;;55.78;;
21152;SDS011;10734;44.792;20.482;2022-11-06T11:56:50;169.35;;;55.10;;
21152;SDS011;10734;44.792;20.482;2022-11-06T11:59:36;190.07;;;57.40;;
21152;SDS011;10734;44.792;20.482;2022-11-06T12:07:54;172.75;;;57.75;;
21152;SDS011;10734;44.792;20.482;2022-11-06T12:13:02;187.70;;;60.78;;
21152;SDS011;10734;44.792;20.482;2022-11-06T12:18:18;215.18;;;60.60;;
21152;SDS011;10734;44.792;20.482;2022-11-06T12:31:58;221.13;;;62.63;;
21152;SDS011;10734;44.792;20.482;2022-11-06T12:34:36;251.90;;;64.15;;
21152;SDS011;10734;44.792;20.482;2022-11-06T12:39:56;210.63;;;61.28;;
21152;SDS011;10734;44.792;20.482;2022-11-06T12:42:29;158.48;;;57.50;;
21152;SDS011;10734;44.792;20.482;2022-11-06T12:44:58;182.48;;;60.88;;
21152;SDS011;10734;44.792;20.482;2022-11-06T12:55:39;237.60;;;85.18;;
21152;SDS011;10734;44.792;20.482;2022-11-06T13:09:29;254.23;;;55.63;;
21152;SDS011;10734;44.792;20.482;2022-11-06T13:12:07;176.68;;;50.92;;
21152;SDS011;10734;44.792;20.482;2022-11-06T13:17:33;159.25;;;47.97;;
21152;SDS011;10734;44.792;20.482;2022-11-06T13:20:13;184.45;;;49.60;;
21152;SDS011;10734;44.792;20.482;2022-11-06T13:30:48;148.68;;;50.45;;
21152;SDS011;10734;44.792;20.482;2022-11-06T13:33:24;165.98;;;50.17;;
21152;SDS011;10734;44.792;20.482;2022-11-06T13:35:53;169.38;;;48.67;;
21152;SDS011;10734;44.792;20.482;2022-11-06T13:38:27;180.68;;;51.75;;
21152;SDS011;10734;44.792;20.482;2022-11-06T13:40:59;338.95;;;54.17;;
21152;SDS011;10734;44.792;20.482;2022-11-06T13:46:04;134.20;;;46.72;;
21152;SDS011;10734;44.792;20.482;2022-11-06T13:54:31;150.77;;;49.92;;
21152;SDS011;10734;44.792;20.482;2022-11-06T13:59:40;185.90;;;50.63;;
21152;SDS011;10734;44.792;20.482;2022-11-06T14:07:54;219.13;;;48.42;;
21152;SDS011;10734;44.792;20.482;2022-11-06T14:10:31;177.50;;;50.83;;
21152;SDS011;10734;44.792;20.482;2022-11-06T14:13:03;132.77;;;47.22;;
21152;SDS011;10734;44.792;20.482;2022-11-06T14:15:35;184.95;;;50.13;;
21152;SDS011;10734;44.792;20.482;2022-11-06T14:18:04;167.20;;;49.40;;
21152;SDS011;10734;44.792;20.482;2022-11-06T14:20:35;240.90;;;54.58;;
21152;SDS011;10734;44.792;20.482;2022-11-06T14:26:01;154.40;;;52.75;;
21152;SDS011;10734;44.792;20.482;2022-11-06T14:28:43;155.80;;;55.00;;
21152;SDS011;10734;44.792;20.482;2022-11-06T14:31:10;124.80;;;48.10;;
21152;SDS011;10734;44.792;20.482;2022-11-06T14:34:25;148.57;;;49.72;;
21152;SDS011;10734;44.792;20.482;2022-11-06T14:40:10;164.63;;;51.35;;
21152;SDS011;10734;44.792;20.482;2022-11-06T14:42:17;238.55;;;46.13;;
21152;SDS011;10734;44.792;20.482;2022-11-06T14:44:59;221.13;;;49.33;;
21152;SDS011;10734;44.792;20.482;2022-11-06T14:47:47;129.68;;;45.85;;
21152;SDS011;10734;44.792;20.482;2022-11-06T14:50:23;310.13;;;53.45;;
21152;SDS011;10734;44.792;20.482;2022-11-06T14:53:01;270.15;;;61.75;;
21152;SDS011;10734;44.792;20.482;2022-11-06T14:58:17;265.40;;;54.88;;
21152;SDS011;10734;44.792;20.482;2022-11-06T15:00:55;139.93;;;48.30;;
21152;SDS011;10734;44.792;20.482;2022-11-06T15:03:32;135.35;;;45.85;;
21152;SDS011;10734;44.792;20.482;2022-11-06T15:06:04;140.57;;;48.42;;
21152;SDS011;10734;44.792;20.482;2022-11-06T15:16:39;131.82;;;46.22;;
21152;SDS011;10734;44.792;20.482;2022-11-06T15:19:19;273.88;;;45.70;;
21152;SDS011;10734;44.792;20.482;2022-11-06T15:22:02;135.25;;;33.35;;
21152;SDS011;10734;44.792;20.482;2022-11-06T15:24:40;229.20;;;43.90;;
21152;SDS011;10734;44.792;20.482;2022-11-06T15:27:18;155.75;;;41.28;;
21152;SDS011;10734;44.792;20.482;2022-11-06T15:29:48;197.30;;;41.60;;
21152;SDS011;10734;44.792;20.482;2022-11-06T15:32:23;175.73;;;38.17;;
21152;SDS011;10734;44.792;20.482;2022-11-06T15:34:57;254.88;;;43.80;;
21152;SDS011;10734;44.792;20.482;2022-11-06T15:37:29;210.63;;;43.45;;
21152;SDS011;10734;44.792;20.482;2022-11-06T15:40:00;137.00;;;34.60;;
21152;SDS011;10734;44.792;20.482;2022-11-06T15:42:27;162.00;;;37.53;;
21152;SDS011;10734;44.792;20.482;2022-11-06T15:47:34;169.75;;;34.78;;
21152;SDS011;10734;44.792;20.482;2022-11-06T15:52:48;156.68;;;36.17;;
21152;SDS011;10734;44.792;20.482;2022-11-06T15:55:23;140.65;;;32.85;;
21152;SDS011;10734;44.792;20.482;2022-11-06T15:57:50;101.75;;;31.95;;
21152;SDS011;10734;44.792;20.482;2022-11-06T16:00:18;98.07;;;29.70;;
21152;SDS011;10734;44.792;20.482;2022-11-06T16:05:15;100.72;;;31.65;;
21152;SDS011;10734;44.792;20.482;2022-11-06T16:07:43;79.32;;;29.40;;
21152;SDS011;10734;44.792;20.482;2022-11-06T16:10:16;91.03;;;28.92;;
21152;SDS011;10734;44.792;20.482;2022-11-06T16:12:44;89.18;;;29.35;;
21152;SDS011;10734;44.792;20.482;2022-11-06T16:21:06;90.20;;;30.05;;
21152;SDS011;10734;44.792;20.482;2022-11-06T16:29:06;73.47;;;30.45;;
21152;SDS011;10734;44.792;20.482;2022-11-06T16:31:36;100.18;;;31.55;;
21152;SDS011;10734;44.792;20.482;2022-11-06T16:34:04;141.10;;;33.75;;
21152;SDS011;10734;44.792;20.482;2022-11-06T16:36:56;78.50;;;30.92;;
21152;SDS011;10734;44.792;20.482;2022-11-06T16:47:25;88.80;;;29.10;;
21152;SDS011;10734;44.792;20.482;2022-11-06T16:49:56;153.95;;;30.38;;
21152;SDS011;10734;44.792;20.482;2022-11-06T16:52:24;155.63;;;29.67;;
21152;SDS011;10734;44.792;20.482;2022-11-06T16:54:52;141.90;;;32.30;;
21152;SDS011;10734;44.792;20.482;2022-11-06T16:57:51;120.72;;;31.88;;
21152;SDS011;10734;44.792;20.482;2022-11-06T17:00:27;181.40;;;33.25;;
21152;SDS011;10734;44.792;20.482;2022-11-06T17:02:57;101.00;;;30.55;;
21152;SDS011;10734;44.792;20.482;2022-11-06T17:05:49;211.48;;;31.98;;
21152;SDS011;10734;44.792;20.482;2022-11-06T17:10:57;130.65;;;31.58;;
21152;SDS011;10734;44.792;20.482;2022-11-06T17:13:40;137.63;;;33.35;;
21152;SDS011;10734;44.792;20.482;2022-11-06T17:16:16;157.38;;;35.58;;
21152;SDS011;10734;44.792;20.482;2022-11-06T17:18:47;104.13;;;33.15;;
21152;SDS011;10734;44.792;20.482;2022-11-06T17:21:16;144.77;;;36.10;;
21152;SDS011;10734;44.792;20.482;2022-11-06T17:23:43;131.38;;;34.13;;
21152;SDS011;10734;44.792;20.482;2022-11-06T17:28:44;160.00;;;35.88;;
21152;SDS011;10734;44.792;20.482;2022-11-06T17:31:11;120.68;;;34.13;;
21152;SDS011;10734;44.792;20.482;2022-11-06T17:33:40;97.03;;;34.95;;
21152;SDS011;10734;44.792;20.482;2022-11-06T17:36:15;220.20;;;36.53;;
21152;SDS011;10734;44.792;20.482;2022-11-06T17:38:46;140.63;;;36.35;;
21152;SDS011;10734;44.792;20.482;2022-11-06T17:41:14;194.52;;;34.90;;
21152;SDS011;10734;44.792;20.482;2022-11-06T17:46:29;156.23;;;34.17;;
21152;SDS011;10734;44.792;20.482;2022-11-06T17:48:58;193.68;;;38.72;;
21152;SDS011;10734;44.792;20.482;2022-11-06T17:51:25;273.10;;;44.30;;
21152;SDS011;10734;44.792;20.482;2022-11-06T17:54:10;164.73;;;40.60;;